createdAt,value
2022-09-06T00:01:24.409Z,17.00
2022-09-06T00:03:51.265Z,17.00
2022-09-06T00:06:20.103Z,17.00
2022-09-06T00:08:48.382Z,16.90
2022-09-06T00:11:16.129Z,16.90
2022-09-06T00:13:43.840Z,16.90
2022-09-06T00:16:16.967Z,16.80
2022-09-06T00:18:44.762Z,16.80
2022-09-06T00:21:18.388Z,16.70
2022-09-06T00:23:45.170Z,16.80
2022-09-06T00:26:12.373Z,16.70
2022-09-06T00:28:39.428Z,16.60
2022-09-06T00:31:26.329Z,16.70
2022-09-06T00:33:53.390Z,16.80
2022-09-06T00:36:20.938Z,16.80
2022-09-06T00:38:47.936Z,16.60
2022-09-06T00:41:16.431Z,16.70
2022-09-06T00:43:43.735Z,16.80
2022-09-06T00:46:15.726Z,16.90
2022-09-06T00:48:43.927Z,16.80
2022-09-06T00:51:14.212Z,16.60
2022-09-06T00:53:41.589Z,16.60
2022-09-06T00:56:09.363Z,16.70
2022-09-06T00:58:36.795Z,16.60
2022-09-06T01:01:05.188Z,16.60
2022-09-06T01:03:32.467Z,16.50
2022-09-06T01:06:17.333Z,16.40
2022-09-06T01:09:26.416Z,16.50
2022-09-06T01:12:00.994Z,16.60
2022-09-06T01:15:03.321Z,16.50
2022-09-06T01:17:50.697Z,16.50
2022-09-06T01:20:39.102Z,16.50
2022-09-06T01:23:11.626Z,16.50
2022-09-06T01:25:47.077Z,16.50
2022-09-06T01:28:25.894Z,16.50
2022-09-06T01:31:02.837Z,16.50
2022-09-06T01:33:46.391Z,16.50
2022-09-06T01:36:17.341Z,16.50
2022-09-06T01:38:44.350Z,16.50
2022-09-06T01:41:11.487Z,16.70
2022-09-06T01:43:42.070Z,16.70
2022-09-06T01:46:33.435Z,16.70
2022-09-06T01:49:23.793Z,16.70
2022-09-06T01:52:14.980Z,16.80
2022-09-06T01:54:51.306Z,16.80
2022-09-06T01:57:40.904Z,16.60
2022-09-06T02:00:11.832Z,16.70
2022-09-06T02:02:50.903Z,16.70
2022-09-06T02:05:32.269Z,16.80
2022-09-06T02:08:04.865Z,16.70
2022-09-06T02:10:40.131Z,16.70
2022-09-06T02:13:08.818Z,16.70
2022-09-06T02:15:47.293Z,16.70
2022-09-06T02:18:19.564Z,16.60
2022-09-06T02:20:51.729Z,16.70
2022-09-06T02:23:20.754Z,16.60
2022-09-06T02:25:53.077Z,16.70
2022-09-06T02:28:20.050Z,16.60
2022-09-06T02:30:50.820Z,16.60
2022-09-06T02:33:21.037Z,16.60
2022-09-06T02:35:53.685Z,16.60
2022-09-06T02:38:24.656Z,16.60
2022-09-06T02:40:53.985Z,16.50
2022-09-06T02:43:21.691Z,16.60
2022-09-06T02:45:48.578Z,16.60
2022-09-06T02:48:15.320Z,16.40
2022-09-06T02:50:42.041Z,16.50
2022-09-06T02:53:11.280Z,16.60
2022-09-06T02:55:38.857Z,16.70
2022-09-06T02:58:06.858Z,16.70
2022-09-06T03:00:34.101Z,16.60
2022-09-06T03:03:01.011Z,16.70
2022-09-06T03:05:28.735Z,16.70
2022-09-06T03:07:56.073Z,16.70
2022-09-06T03:10:23.680Z,16.70
2022-09-06T03:12:51.078Z,16.80
2022-09-06T03:15:18.176Z,16.80
2022-09-06T03:17:44.906Z,16.70
2022-09-06T03:20:13.108Z,16.70
2022-09-06T03:22:40.433Z,16.70
2022-09-06T03:25:08.892Z,16.70
2022-09-06T03:27:35.621Z,16.70
2022-09-06T03:30:02.681Z,16.60
2022-09-06T03:32:29.445Z,16.60
2022-09-06T03:34:56.175Z,16.50
2022-09-06T03:37:23.112Z,16.50
2022-09-06T03:39:49.941Z,16.40
2022-09-06T03:42:16.783Z,16.40
2022-09-06T03:44:43.687Z,16.50
2022-09-06T03:47:10.531Z,16.40
2022-09-06T03:49:37.261Z,16.30
2022-09-06T03:52:04.215Z,16.30
2022-09-06T03:54:30.921Z,16.30
2022-09-06T03:56:57.623Z,16.20
2022-09-06T03:59:24.376Z,16.10
2022-09-06T04:01:51.126Z,16.10
2022-09-06T04:04:17.838Z,16.10
2022-09-06T04:06:44.562Z,16.10
2022-09-06T04:09:11.301Z,16.10
2022-09-06T04:11:38.046Z,16.20
2022-09-06T04:14:04.761Z,16.20
2022-09-06T04:16:31.637Z,16.20
2022-09-06T04:19:03.578Z,16.30
2022-09-06T04:21:31.251Z,16.20
2022-09-06T04:23:58.033Z,16.10
2022-09-06T04:26:24.790Z,16.00
2022-09-06T04:28:51.522Z,16.00
2022-09-06T04:31:18.291Z,16.00
2022-09-06T04:33:45.168Z,16.00
2022-09-06T04:36:12.800Z,16.00
2022-09-06T04:38:42.133Z,16.00
2022-09-06T04:41:13.871Z,15.90
2022-09-06T04:43:40.630Z,16.00
2022-09-06T04:46:18.914Z,16.00
2022-09-06T04:48:48.222Z,15.90
2022-09-06T04:51:15.175Z,15.90
2022-09-06T04:53:41.940Z,15.80
2022-09-06T04:56:17.365Z,15.70
2022-09-06T04:58:46.912Z,15.80
2022-09-06T05:01:13.880Z,15.90
2022-09-06T05:03:40.974Z,15.90
2022-09-06T05:06:22.659Z,15.90
2022-09-06T05:08:50.067Z,15.80
2022-09-06T05:11:17.309Z,15.90
2022-09-06T05:13:46.526Z,15.90
2022-09-06T05:16:13.892Z,15.90
2022-09-06T05:18:40.613Z,16.00
2022-09-06T05:21:07.675Z,16.10
2022-09-06T05:23:35.042Z,16.10
2022-09-06T05:26:01.848Z,16.10
2022-09-06T05:28:28.739Z,16.10
2022-09-06T05:31:12.849Z,16.10
2022-09-06T05:33:39.745Z,16.00
2022-09-06T05:36:07.112Z,16.10
2022-09-06T05:38:33.983Z,16.10
2022-09-06T05:41:00.932Z,16.10
2022-09-06T05:43:27.779Z,15.90
2022-09-06T05:45:55.079Z,15.80
2022-09-06T05:48:22.047Z,15.80
2022-09-06T05:50:58.864Z,15.90
2022-09-06T05:53:25.727Z,16.20
2022-09-06T05:55:52.439Z,16.40
2022-09-06T05:58:19.181Z,16.60
2022-09-06T06:00:45.923Z,16.70
2022-09-06T06:03:12.622Z,16.80
2022-09-06T06:05:39.368Z,17.00
2022-09-06T06:08:06.122Z,17.10
2022-09-06T06:10:36.668Z,17.20
2022-09-06T06:13:05.391Z,17.30
2022-09-06T06:15:32.423Z,17.40
2022-09-06T06:17:59.197Z,17.30
2022-09-06T06:20:25.905Z,17.40
2022-09-06T06:22:52.804Z,17.50
2022-09-06T06:25:23.017Z,17.60
2022-09-06T06:27:49.705Z,17.70
2022-09-06T06:30:18.490Z,17.80
2022-09-06T06:32:45.518Z,18.00
2022-09-06T06:35:12.629Z,18.10
2022-09-06T06:37:39.623Z,18.30
2022-09-06T06:40:06.929Z,18.50
2022-09-06T06:42:33.781Z,18.60
2022-09-06T06:45:00.582Z,18.70
2022-09-06T06:47:27.331Z,18.80
2022-09-06T06:49:54.051Z,18.90
2022-09-06T06:52:21.674Z,18.90
2022-09-06T06:54:50.065Z,19.10
2022-09-06T06:57:16.958Z,19.30
2022-09-06T06:59:43.833Z,19.50
2022-09-06T07:02:10.749Z,19.60
2022-09-06T07:04:37.557Z,19.70
2022-09-06T07:12:39.712Z,20.00
2022-09-06T07:15:06.942Z,20.10
2022-09-06T07:17:34.759Z,20.00
2022-09-06T07:20:17.134Z,20.00
2022-09-06T07:22:43.884Z,19.90
2022-09-06T07:25:14.505Z,20.10
2022-09-06T07:30:16.241Z,20.40
2022-09-06T07:32:42.980Z,20.60
2022-09-06T07:35:09.965Z,20.80
2022-09-06T07:37:36.655Z,20.80
2022-09-06T07:40:04.811Z,20.90
2022-09-06T07:42:36.235Z,20.90
2022-09-06T07:45:04.908Z,21.00
2022-09-06T07:55:38.589Z,20.80
2022-09-06T07:58:05.498Z,20.90
2022-09-06T08:00:32.280Z,20.90
2022-09-06T08:02:59.253Z,21.00
2022-09-06T08:10:59.766Z,21.30
2022-09-06T08:13:26.537Z,21.40
2022-09-06T08:16:00.729Z,21.60
2022-09-06T08:18:27.764Z,21.70
2022-09-06T08:20:54.611Z,21.60
2022-09-06T08:23:21.558Z,21.50
2022-09-06T08:25:58.643Z,21.50
2022-09-06T08:28:28.844Z,21.50
2022-09-06T08:31:05.019Z,21.40
2022-09-06T08:33:32.036Z,21.30
2022-09-06T08:35:59.303Z,21.30
2022-09-06T08:38:27.761Z,21.20
2022-09-06T08:40:55.799Z,21.30
2022-09-06T08:43:23.332Z,21.30
2022-09-06T08:45:56.481Z,21.20
2022-09-06T08:48:29.492Z,21.20
2022-09-06T08:51:38.601Z,21.10
2022-09-06T08:54:38.220Z,21.00
2022-09-06T08:57:09.874Z,21.00
2022-09-06T08:59:42.931Z,20.90
2022-09-06T09:02:17.708Z,20.90
2022-09-06T09:04:51.202Z,20.80
2022-09-06T09:07:39.089Z,20.60
2022-09-06T09:10:27.920Z,20.50
2022-09-06T09:12:54.741Z,20.10
2022-09-06T09:15:22.330Z,20.00
2022-09-06T09:17:51.864Z,20.00
2022-09-06T09:20:18.901Z,19.90
2022-09-06T09:22:46.434Z,20.10
2022-09-06T09:25:23.645Z,20.40
2022-09-06T09:27:57.661Z,20.70
2022-09-06T09:33:28.274Z,21.10
2022-09-06T09:35:58.322Z,21.40
2022-09-06T09:38:31.779Z,21.40
2022-09-06T09:41:00.107Z,21.50
2022-09-06T09:43:31.505Z,21.30
2022-09-06T09:46:10.714Z,21.10
2022-09-06T09:48:37.830Z,21.10
2022-09-06T09:51:27.316Z,21.00
2022-09-06T09:54:14.823Z,21.10
2022-09-06T09:56:49.699Z,21.10
2022-09-06T09:59:37.963Z,21.20
2022-09-06T10:02:43.225Z,21.30
2022-09-06T10:05:12.655Z,21.40
2022-09-06T10:07:52.816Z,21.60
2022-09-06T10:10:28.557Z,21.70
2022-09-06T10:13:29.512Z,21.70
2022-09-06T10:16:03.277Z,21.60
2022-09-06T10:18:42.876Z,21.70
2022-09-06T10:21:13.065Z,21.80
2022-09-06T10:26:52.602Z,22.10
2022-09-06T10:29:45.199Z,22.20
2022-09-06T10:32:36.927Z,22.50
2022-09-06T10:35:21.922Z,23.20
2022-09-06T10:38:23.918Z,23.90
2022-09-06T10:41:05.452Z,24.30
2022-09-06T10:43:48.339Z,24.50
2022-09-06T10:46:16.197Z,24.70
2022-09-06T10:48:46.387Z,24.90
2022-09-06T10:51:40.618Z,25.00
2022-09-06T10:54:11.737Z,25.10
2022-09-06T10:56:58.787Z,25.30
2022-09-06T11:02:09.928Z,25.40
2022-09-06T11:07:37.937Z,25.70
2022-09-06T11:10:19.139Z,25.60
2022-09-06T11:12:55.477Z,25.60
2022-09-06T11:15:23.529Z,25.30
2022-09-06T11:18:09.539Z,25.30
2022-09-06T11:20:42.473Z,25.50
2022-09-06T11:23:21.444Z,25.70
2022-09-06T11:26:15.125Z,26.00
2022-09-06T11:28:55.105Z,26.30
2022-09-06T11:34:31.641Z,26.40
2022-09-06T11:37:04.477Z,26.60
2022-09-06T11:42:47.744Z,26.70
2022-09-06T11:45:22.118Z,26.80
2022-09-06T11:47:51.722Z,27.00
2022-09-06T11:50:21.512Z,27.20
2022-09-06T11:53:06.936Z,27.30
2022-09-06T11:55:38.157Z,27.20
2022-09-06T11:58:20.223Z,27.30
2022-09-06T12:01:13.062Z,27.20
2022-09-06T12:04:05.298Z,27.00
2022-09-06T12:06:41.440Z,26.70
2022-09-06T12:09:29.118Z,26.60
2022-09-06T12:11:56.828Z,26.60
2022-09-06T12:14:42.520Z,26.50
2022-09-06T12:17:09.752Z,26.50
2022-09-06T12:19:52.025Z,26.40
2022-09-06T12:22:27.631Z,26.50
2022-09-06T12:25:16.165Z,26.60
2022-09-06T12:27:57.822Z,26.60
2022-09-06T12:30:42.151Z,26.30
2022-09-06T12:33:33.564Z,26.10
2022-09-06T12:36:22.583Z,26.10
2022-09-06T12:39:13.023Z,26.20
2022-09-06T12:41:43.718Z,26.20
2022-09-06T12:44:11.234Z,26.20
2022-09-06T12:46:39.952Z,26.20
2022-09-06T12:49:12.008Z,26.40
2022-09-06T12:51:41.019Z,26.40
2022-09-06T12:54:26.468Z,26.30
2022-09-06T12:56:53.884Z,26.20
2022-09-06T12:59:27.035Z,26.30
2022-09-06T13:02:06.018Z,26.30
2022-09-06T13:04:56.378Z,26.20
2022-09-06T13:07:24.537Z,26.20
2022-09-06T13:09:55.043Z,25.70
2022-09-06T13:12:44.402Z,25.70
2022-09-06T13:15:14.530Z,25.70
2022-09-06T13:17:41.374Z,25.60
2022-09-06T13:20:22.741Z,25.50
2022-09-06T13:22:51.345Z,25.50
2022-09-06T13:25:21.143Z,25.50
2022-09-06T13:27:58.234Z,25.60
2022-09-06T13:30:42.071Z,25.80
2022-09-06T13:33:26.041Z,25.90
2022-09-06T13:36:08.264Z,26.00
2022-09-06T13:38:39.802Z,26.10
2022-09-06T13:41:24.775Z,26.20
2022-09-06T13:44:07.793Z,26.10
2022-09-06T13:46:38.520Z,26.00
2022-09-06T13:49:06.111Z,26.00
2022-09-06T13:51:34.178Z,25.80
2022-09-06T13:54:11.597Z,25.70
2022-09-06T13:56:39.316Z,25.70
2022-09-06T13:59:07.025Z,25.70
2022-09-06T14:01:34.449Z,25.70
2022-09-06T14:04:01.540Z,25.70
2022-09-06T14:06:28.452Z,25.50
2022-09-06T14:09:06.783Z,25.40
2022-09-06T14:11:35.132Z,25.30
2022-09-06T14:14:01.877Z,25.30
2022-09-06T14:16:29.267Z,25.20
2022-09-06T14:18:56.145Z,25.30
2022-09-06T14:21:22.986Z,25.40
2022-09-06T14:23:53.052Z,25.40
2022-09-06T14:26:21.482Z,25.30
2022-09-06T14:28:48.433Z,25.40
2022-09-06T14:31:17.882Z,25.60
2022-09-06T14:33:44.979Z,25.90
2022-09-06T14:36:14.479Z,26.10
2022-09-06T14:38:42.807Z,26.20
2022-09-06T14:41:10.516Z,26.30
2022-09-06T14:43:37.941Z,26.50
2022-09-06T14:46:11.489Z,26.80
2022-09-06T14:48:42.107Z,27.00
2022-09-06T14:51:22.105Z,27.10
2022-09-06T14:53:51.981Z,26.80
2022-09-06T14:56:19.697Z,26.80
2022-09-06T14:58:46.773Z,27.00
2022-09-06T15:01:19.771Z,27.20
2022-09-06T15:03:52.089Z,27.10
2022-09-06T15:06:21.263Z,26.60
2022-09-06T15:08:49.201Z,26.10
2022-09-06T15:11:48.014Z,26.00
2022-09-06T15:14:26.489Z,26.10
2022-09-06T15:16:56.643Z,26.30
2022-09-06T15:19:28.348Z,26.40
2022-09-06T15:21:56.194Z,26.50
2022-09-06T15:24:23.474Z,26.40
2022-09-06T15:26:50.410Z,26.30
2022-09-06T15:29:17.269Z,26.10
2022-09-06T15:31:50.086Z,26.00
2022-09-06T15:34:18.647Z,25.70
2022-09-06T15:36:45.443Z,25.60
2022-09-06T15:39:13.181Z,25.40
2022-09-06T15:41:41.277Z,25.20
2022-09-06T15:44:17.026Z,25.00
2022-09-06T15:46:53.853Z,25.00
2022-09-06T15:49:28.297Z,24.80
2022-09-06T15:51:57.347Z,24.70
2022-09-06T15:54:43.271Z,24.50
2022-09-06T15:57:11.124Z,24.50
2022-09-06T15:59:39.522Z,24.50
2022-09-06T16:02:06.857Z,24.50
2022-09-06T16:04:34.128Z,24.50
2022-09-06T16:07:01.106Z,24.40
2022-09-06T16:09:28.293Z,24.30
2022-09-06T16:11:55.213Z,24.30
2022-09-06T16:14:21.986Z,24.20
2022-09-06T16:16:49.110Z,24.20
2022-09-06T16:19:16.145Z,24.10
2022-09-06T16:21:43.768Z,24.10
2022-09-06T16:24:13.138Z,24.00
2022-09-06T16:26:46.134Z,23.90
2022-09-06T16:29:16.202Z,23.80
2022-09-06T16:31:43.090Z,23.60
2022-09-06T16:34:11.059Z,23.50
2022-09-06T16:36:38.082Z,23.30
2022-09-06T16:39:06.145Z,23.20
2022-09-06T16:41:42.357Z,23.20
2022-09-06T16:44:16.043Z,23.10
2022-09-06T16:46:48.637Z,23.00
2022-09-06T16:49:17.374Z,23.00
2022-09-06T16:51:45.692Z,22.90
2022-09-06T16:54:13.945Z,22.90
2022-09-06T16:56:41.489Z,22.90
2022-09-06T16:59:10.214Z,22.90
2022-09-06T17:01:41.361Z,22.80
2022-09-06T17:04:09.569Z,22.70
2022-09-06T17:06:42.204Z,22.70
2022-09-06T17:09:08.945Z,22.70
2022-09-06T17:11:37.726Z,22.60
2022-09-06T17:14:04.472Z,22.40
2022-09-06T17:16:49.769Z,22.40
2022-09-06T17:19:16.680Z,22.40
2022-09-06T17:21:44.514Z,22.50
2022-09-06T17:24:11.607Z,22.40
2022-09-06T17:26:39.651Z,22.40
2022-09-06T17:29:07.280Z,22.30
2022-09-06T17:31:34.660Z,22.10
2022-09-06T17:34:01.761Z,22.00
2022-09-06T17:36:31.701Z,22.00
2022-09-06T17:39:04.400Z,21.90
2022-09-06T17:41:40.092Z,21.90
2022-09-06T17:44:10.474Z,21.80
2022-09-06T17:46:47.633Z,21.70
2022-09-06T17:49:15.505Z,21.60
2022-09-06T17:51:42.435Z,21.60
2022-09-06T17:54:10.173Z,21.40
2022-09-06T17:56:37.771Z,21.30
2022-09-06T17:59:11.089Z,21.30
2022-09-06T18:01:38.448Z,21.20
2022-09-06T18:04:07.393Z,21.10
2022-09-06T18:06:36.130Z,21.10
2022-09-06T18:09:11.943Z,21.00
2022-09-06T18:11:40.388Z,20.90
2022-09-06T18:14:09.938Z,20.90
2022-09-06T18:16:38.788Z,20.70
2022-09-06T18:19:07.619Z,20.70
2022-09-06T18:21:36.953Z,20.60
2022-09-06T18:24:04.669Z,20.50
2022-09-06T18:26:31.676Z,20.30
2022-09-06T18:28:58.482Z,20.40
2022-09-06T18:31:26.633Z,20.40
2022-09-06T18:33:56.432Z,20.30
2022-09-06T18:36:23.282Z,20.20
2022-09-06T18:38:50.055Z,20.10
2022-09-06T18:41:35.437Z,20.00
2022-09-06T18:44:04.357Z,20.10
2022-09-06T18:46:33.049Z,20.10
2022-09-06T18:49:00.558Z,19.90
2022-09-06T18:51:28.108Z,20.00
2022-09-06T18:53:56.669Z,19.80
2022-09-06T18:56:23.891Z,19.90
2022-09-06T18:58:53.513Z,20.00
2022-09-06T19:01:21.090Z,20.00
2022-09-06T19:03:47.891Z,20.00
2022-09-06T19:06:17.774Z,20.00
2022-09-06T19:08:45.172Z,20.00
2022-09-06T19:11:14.187Z,19.90
2022-09-06T19:13:42.063Z,19.90
2022-09-06T19:16:10.289Z,19.80
2022-09-06T19:18:38.033Z,19.70
2022-09-06T19:21:10.246Z,19.60
2022-09-06T19:23:39.751Z,19.50
2022-09-06T19:26:18.139Z,19.60
2022-09-06T19:28:53.189Z,19.60
2022-09-06T19:31:20.132Z,19.60
2022-09-06T19:33:48.538Z,19.40
2022-09-06T19:36:17.201Z,19.40
2022-09-06T19:39:03.538Z,19.40
2022-09-06T19:41:32.290Z,19.20
2022-09-06T19:44:00.060Z,19.20
2022-09-06T19:46:28.024Z,19.10
2022-09-06T19:48:58.227Z,19.10
2022-09-06T19:51:25.047Z,19.10
2022-09-06T19:53:54.209Z,19.00
2022-09-06T19:56:23.344Z,19.00
2022-09-06T19:58:58.306Z,19.00
2022-09-06T20:01:26.621Z,19.00
2022-09-06T20:03:53.491Z,18.80
2022-09-06T20:06:21.936Z,18.70
2022-09-06T20:08:54.026Z,18.50
2022-09-06T20:11:23.558Z,18.40
2022-09-06T20:13:50.321Z,18.50
2022-09-06T20:16:20.781Z,18.50
2022-09-06T20:18:48.646Z,18.60
2022-09-06T20:21:18.353Z,18.50
2022-09-06T20:23:49.747Z,18.40
2022-09-06T20:26:17.022Z,18.20
2022-09-06T20:28:44.670Z,18.10
2022-09-06T20:31:18.141Z,18.00
2022-09-06T20:33:49.471Z,18.20
2022-09-06T20:36:17.581Z,18.30
2022-09-06T20:38:45.815Z,18.30
2022-09-06T20:41:17.073Z,18.20
2022-09-06T20:43:44.357Z,18.10
2022-09-06T20:46:14.716Z,18.10
2022-09-06T20:48:44.766Z,18.20
2022-09-06T20:51:15.940Z,18.10
2022-09-06T20:53:42.734Z,18.10
2022-09-06T20:56:12.512Z,18.10
2022-09-06T20:58:40.131Z,18.20
2022-09-06T21:01:09.473Z,18.20
2022-09-06T21:03:41.022Z,18.20
2022-09-06T21:06:10.757Z,18.20
2022-09-06T21:08:41.842Z,18.20
2022-09-06T21:11:10.374Z,18.10
2022-09-06T21:13:38.122Z,17.90
2022-09-06T21:16:06.110Z,17.80
2022-09-06T21:18:34.064Z,17.90
2022-09-06T21:21:10.139Z,17.80
2022-09-06T21:23:38.592Z,17.80
2022-09-06T21:26:07.787Z,17.90
2022-09-06T21:28:36.668Z,18.00
2022-09-06T21:31:13.730Z,18.00
2022-09-06T21:33:42.644Z,18.00
2022-09-06T21:36:12.182Z,17.90
2022-09-06T21:38:40.946Z,17.80
2022-09-06T21:41:08.972Z,17.80
2022-09-06T21:43:36.258Z,17.90
2022-09-06T21:46:05.029Z,18.10
2022-09-06T21:48:32.314Z,18.20
2022-09-06T21:50:59.023Z,18.40
2022-09-06T21:53:27.097Z,18.50
2022-09-06T21:56:02.744Z,18.50
2022-09-06T21:58:30.443Z,18.60
2022-09-06T22:00:59.229Z,18.50
2022-09-06T22:03:32.269Z,18.50
2022-09-06T22:05:59.494Z,18.50
2022-09-06T22:08:26.614Z,18.50
2022-09-06T22:10:53.651Z,18.30
2022-09-06T22:13:20.834Z,18.20
2022-09-06T22:15:47.634Z,18.20
2022-09-06T22:18:14.440Z,18.40
2022-09-06T22:20:41.175Z,18.50
2022-09-06T22:23:09.991Z,18.60
2022-09-06T22:25:36.803Z,18.70
2022-09-06T22:28:03.844Z,18.80
2022-09-06T22:30:31.031Z,18.80
2022-09-06T22:32:58.094Z,18.90
2022-09-06T22:35:24.836Z,19.00
2022-09-06T22:37:51.896Z,19.10
2022-09-06T22:40:19.090Z,19.20
2022-09-06T22:42:46.169Z,19.00
2022-09-06T22:45:12.879Z,19.10
2022-09-06T22:47:39.583Z,19.00
2022-09-06T22:50:07.048Z,19.10
2022-09-06T22:52:33.756Z,19.10
2022-09-06T22:55:00.463Z,19.20
2022-09-06T22:57:27.192Z,19.20
2022-09-06T22:59:53.956Z,19.00
2022-09-06T23:02:20.768Z,18.90
2022-09-06T23:04:47.602Z,19.00
2022-09-06T23:07:14.448Z,19.00
2022-09-06T23:09:41.601Z,19.20
2022-09-06T23:12:08.373Z,19.30
2022-09-06T23:14:35.112Z,19.40
2022-09-06T23:17:01.786Z,19.30
2022-09-06T23:19:28.469Z,19.30
2022-09-06T23:21:55.338Z,19.20
2022-09-06T23:24:22.091Z,19.10
2022-09-06T23:26:48.900Z,19.10
2022-09-06T23:29:15.597Z,19.00
2022-09-06T23:31:42.531Z,19.00
2022-09-06T23:34:09.304Z,19.00
2022-09-06T23:36:36.412Z,19.00
2022-09-06T23:39:03.198Z,18.90
2022-09-06T23:41:30.141Z,18.70
2022-09-06T23:43:57.430Z,18.70
2022-09-06T23:46:24.199Z,18.50
2022-09-06T23:48:50.976Z,18.40
2022-09-06T23:51:18.015Z,18.30
2022-09-06T23:53:45.103Z,18.20
2022-09-06T23:56:12.426Z,18.00
2022-09-06T23:58:39.305Z,17.90
